sensor_id;sensor_type;location;lat;lon;timestamp;pressure;altitude;pressure_sealevel;temperature;humidity
32197;BME280;18697;42.770;23.400;2023-05-27T00:01:42;95684.91;;;19.07;69.75
32197;BME280;18697;42.770;23.400;2023-05-27T00:04:08;95679.78;;;19.11;69.68
32197;BME280;18697;42.770;23.400;2023-05-27T00:06:33;95679.97;;;19.24;69.15
32197;BME280;18697;42.770;23.400;2023-05-27T00:08:58;95677.91;;;19.25;69.41
32197;BME280;18697;42.770;23.400;2023-05-27T00:11:24;95675.44;;;19.10;70.02
32197;BME280;18697;42.770;23.400;2023-05-27T00:13:50;95662.59;;;18.57;72.22
32197;BME280;18697;42.770;23.400;2023-05-27T00:16:15;95672.22;;;18.78;71.60
32197;BME280;18697;42.770;23.400;2023-05-27T00:18:41;95662.16;;;18.99;70.80
32197;BME280;18697;42.770;23.400;2023-05-27T00:21:07;95663.09;;;19.19;69.90
32197;BME280;18697;42.770;23.400;2023-05-27T00:23:32;95673.69;;;19.43;69.46
32197;BME280;18697;42.770;23.400;2023-05-27T00:25:58;95667.00;;;19.46;69.02
32197;BME280;18697;42.770;23.400;2023-05-27T00:28:23;95672.84;;;19.59;68.92
32197;BME280;18697;42.770;23.400;2023-05-27T00:30:49;95661.44;;;19.76;68.16
32197;BME280;18697;42.770;23.400;2023-05-27T00:33:14;95646.97;;;19.90;67.39
32197;BME280;18697;42.770;23.400;2023-05-27T00:35:39;95653.91;;;19.89;68.41
32197;BME280;18697;42.770;23.400;2023-05-27T00:38:05;95656.25;;;19.85;67.81
32197;BME280;18697;42.770;23.400;2023-05-27T00:40:30;95651.56;;;19.93;67.53
32197;BME280;18697;42.770;23.400;2023-05-27T00:42:59;95648.66;;;20.05;67.34
32197;BME280;18697;42.770;23.400;2023-05-27T00:45:25;95646.69;;;19.64;69.14
32197;BME280;18697;42.770;23.400;2023-05-27T00:47:51;95652.53;;;19.30;70.54
32197;BME280;18697;42.770;23.400;2023-05-27T00:50:17;95648.16;;;19.71;68.81
32197;BME280;18697;42.770;23.400;2023-05-27T00:52:44;95650.66;;;19.80;68.71
32197;BME280;18697;42.770;23.400;2023-05-27T00:55:09;95639.25;;;19.96;68.16
32197;BME280;18697;42.770;23.400;2023-05-27T00:57:34;95638.34;;;20.07;67.63
32197;BME280;18697;42.770;23.400;2023-05-27T01:00:00;95629.31;;;20.14;67.12
32197;BME280;18697;42.770;23.400;2023-05-27T01:02:25;95636.19;;;20.19;66.93
32197;BME280;18697;42.770;23.400;2023-05-27T01:04:51;95632.53;;;20.24;67.01
32197;BME280;18697;42.770;23.400;2023-05-27T01:07:30;95626.56;;;20.33;66.62
32197;BME280;18697;42.770;23.400;2023-05-27T01:10:20;95620.38;;;20.34;66.35
32197;BME280;18697;42.770;23.400;2023-05-27T01:13:27;95618.31;;;20.35;66.60
32197;BME280;18697;42.770;23.400;2023-05-27T01:15:49;95619.28;;;20.43;66.45
32197;BME280;18697;42.770;23.400;2023-05-27T01:18:17;95608.72;;;20.49;66.09
32197;BME280;18697;42.770;23.400;2023-05-27T01:20:44;95611.47;;;20.55;65.69
32197;BME280;18697;42.770;23.400;2023-05-27T01:23:12;95603.69;;;20.61;65.31
32197;BME280;18697;42.770;23.400;2023-05-27T01:25:38;95606.53;;;20.61;65.61
32197;BME280;18697;42.770;23.400;2023-05-27T01:28:03;95604.69;;;20.63;65.46
32197;BME280;18697;42.770;23.400;2023-05-27T01:30:29;95604.69;;;20.63;65.35
32197;BME280;18697;42.770;23.400;2023-05-27T01:33:03;95604.53;;;20.56;66.27
32197;BME280;18697;42.770;23.400;2023-05-27T01:38:06;95591.91;;;20.38;66.25
32197;BME280;18697;42.770;23.400;2023-05-27T01:40:33;95589.88;;;20.33;66.35
32197;BME280;18697;42.770;23.400;2023-05-27T01:42:59;95581.31;;;20.44;66.38
32197;BME280;18697;42.770;23.400;2023-05-27T01:45:25;95580.25;;;20.47;65.98
32197;BME280;18697;42.770;23.400;2023-05-27T01:47:51;95568.44;;;20.49;65.93
32197;BME280;18697;42.770;23.400;2023-05-27T01:50:17;95569.69;;;20.53;65.47
32197;BME280;18697;42.770;23.400;2023-05-27T01:52:43;95580.03;;;20.45;65.66
32197;BME280;18697;42.770;23.400;2023-05-27T01:55:09;95584.09;;;20.50;65.69
32197;BME280;18697;42.770;23.400;2023-05-27T01:57:34;95589.66;;;20.55;65.46
32197;BME280;18697;42.770;23.400;2023-05-27T02:00:00;95585.78;;;20.58;65.16
32197;BME280;18697;42.770;23.400;2023-05-27T02:02:25;95581.66;;;20.59;64.87
32197;BME280;18697;42.770;23.400;2023-05-27T02:04:51;95588.81;;;20.60;64.94
32197;BME280;18697;42.770;23.400;2023-05-27T02:07:16;95589.28;;;20.64;64.83
32197;BME280;18697;42.770;23.400;2023-05-27T02:09:42;95582.13;;;20.63;65.24
32197;BME280;18697;42.770;23.400;2023-05-27T02:12:08;95584.19;;;20.63;65.37
32197;BME280;18697;42.770;23.400;2023-05-27T02:14:34;95585.72;;;20.64;65.41
32197;BME280;18697;42.770;23.400;2023-05-27T02:17:03;95586.25;;;20.62;65.32
32197;BME280;18697;42.770;23.400;2023-05-27T02:19:29;95588.53;;;20.64;65.94
32197;BME280;18697;42.770;23.400;2023-05-27T02:21:54;95582.34;;;20.65;65.98
32197;BME280;18697;42.770;23.400;2023-05-27T02:24:20;95582.94;;;20.58;66.04
32197;BME280;18697;42.770;23.400;2023-05-27T02:26:45;95581.97;;;20.56;66.32
32197;BME280;18697;42.770;23.400;2023-05-27T02:29:10;95575.78;;;20.57;66.06
32197;BME280;18697;42.770;23.400;2023-05-27T02:31:36;95569.91;;;20.55;67.97
32197;BME280;18697;42.770;23.400;2023-05-27T02:34:01;95585.16;;;20.65;70.01
32197;BME280;18697;42.770;23.400;2023-05-27T02:36:27;95580.59;;;20.62;69.40
32197;BME280;18697;42.770;23.400;2023-05-27T02:38:52;95587.31;;;20.59;69.47
32197;BME280;18697;42.770;23.400;2023-05-27T02:41:18;95584.72;;;20.61;68.75
32197;BME280;18697;42.770;23.400;2023-05-27T02:43:43;95575.25;;;20.59;68.24
32197;BME280;18697;42.770;23.400;2023-05-27T02:46:09;95584.78;;;20.56;67.64
32197;BME280;18697;42.770;23.400;2023-05-27T02:48:34;95569.69;;;20.53;66.95
32197;BME280;18697;42.770;23.400;2023-05-27T02:51:00;95581.19;;;20.55;66.84
32197;BME280;18697;42.770;23.400;2023-05-27T02:53:25;95579.13;;;20.56;66.41
32197;BME280;18697;42.770;23.400;2023-05-27T02:55:51;95573.09;;;20.46;66.42
32197;BME280;18697;42.770;23.400;2023-05-27T02:58:17;95571.09;;;20.41;66.26
32197;BME280;18697;42.770;23.400;2023-05-27T03:00:42;95572.16;;;20.38;66.15
32197;BME280;18697;42.770;23.400;2023-05-27T03:03:08;95572.19;;;20.32;65.79
32197;BME280;18697;42.770;23.400;2023-05-27T03:05:34;95572.56;;;20.23;66.38
32197;BME280;18697;42.770;23.400;2023-05-27T03:08:01;95573.72;;;20.09;66.34
32197;BME280;18697;42.770;23.400;2023-05-27T03:10:26;95579.66;;;20.06;66.81
32197;BME280;18697;42.770;23.400;2023-05-27T03:12:54;95591.72;;;20.06;66.95
32197;BME280;18697;42.770;23.400;2023-05-27T03:15:22;95581.44;;;20.09;66.46
32197;BME280;18697;42.770;23.400;2023-05-27T03:17:48;95582.91;;;20.15;66.34
32197;BME280;18697;42.770;23.400;2023-05-27T03:20:13;95591.06;;;20.19;65.82
32197;BME280;18697;42.770;23.400;2023-05-27T03:22:39;95582.59;;;20.19;66.21
32197;BME280;18697;42.770;23.400;2023-05-27T03:25:05;95589.78;;;20.20;66.49
32197;BME280;18697;42.770;23.400;2023-05-27T03:27:30;95577.44;;;20.23;65.87
32197;BME280;18697;42.770;23.400;2023-05-27T03:29:56;95578.13;;;20.29;65.56
32197;BME280;18697;42.770;23.400;2023-05-27T03:32:21;95595.53;;;20.33;65.52
32197;BME280;18697;42.770;23.400;2023-05-27T03:34:47;95592.47;;;20.31;65.43
32197;BME280;18697;42.770;23.400;2023-05-27T03:37:12;95599.84;;;20.40;65.23
32197;BME280;18697;42.770;23.400;2023-05-27T03:39:39;95591.66;;;20.36;65.42
32197;BME280;18697;42.770;23.400;2023-05-27T03:42:05;95598.53;;;20.41;65.25
32197;BME280;18697;42.770;23.400;2023-05-27T03:44:31;95603.13;;;20.44;65.34
32197;BME280;18697;42.770;23.400;2023-05-27T03:46:57;95599.53;;;20.43;65.21
32197;BME280;18697;42.770;23.400;2023-05-27T03:49:22;95596.19;;;20.45;65.58
32197;BME280;18697;42.770;23.400;2023-05-27T03:51:48;95591.09;;;20.43;65.31
32197;BME280;18697;42.770;23.400;2023-05-27T03:54:13;95598.53;;;20.41;65.81
32197;BME280;18697;42.770;23.400;2023-05-27T03:56:39;95585.97;;;20.42;65.58
32197;BME280;18697;42.770;23.400;2023-05-27T03:59:04;95603.97;;;20.39;65.64
32197;BME280;18697;42.770;23.400;2023-05-27T04:01:31;95606.78;;;20.39;66.02
32197;BME280;18697;42.770;23.400;2023-05-27T04:03:57;95599.09;;;20.33;66.04
32197;BME280;18697;42.770;23.400;2023-05-27T04:06:22;95595.41;;;20.20;66.84
32197;BME280;18697;42.770;23.400;2023-05-27T04:08:47;95597.28;;;20.12;67.10
32197;BME280;18697;42.770;23.400;2023-05-27T04:11:13;95599.34;;;20.11;67.08
32197;BME280;18697;42.770;23.400;2023-05-27T04:13:39;95587.00;;;20.14;67.08
32197;BME280;18697;42.770;23.400;2023-05-27T04:16:04;95585.94;;;20.17;66.94
32197;BME280;18697;42.770;23.400;2023-05-27T04:18:30;95598.47;;;20.22;66.55
32197;BME280;18697;42.770;23.400;2023-05-27T04:20:55;95593.59;;;20.22;66.63
32197;BME280;18697;42.770;23.400;2023-05-27T04:23:23;95600.47;;;20.27;66.72
32197;BME280;18697;42.770;23.400;2023-05-27T04:25:48;95600.41;;;20.32;66.62
32197;BME280;18697;42.770;23.400;2023-05-27T04:28:15;95594.28;;;20.28;66.63
32197;BME280;18697;42.770;23.400;2023-05-27T04:30:40;95603.22;;;20.32;66.70
32197;BME280;18697;42.770;23.400;2023-05-27T04:33:06;95594.22;;;20.34;66.44
32197;BME280;18697;42.770;23.400;2023-05-27T04:35:33;95604.00;;;20.33;66.98
32197;BME280;18697;42.770;23.400;2023-05-27T04:37:59;95606.00;;;20.38;66.49
32197;BME280;18697;42.770;23.400;2023-05-27T04:40:26;95599.34;;;20.11;68.39
32197;BME280;18697;42.770;23.400;2023-05-27T04:42:51;95614.69;;;20.16;67.77
32197;BME280;18697;42.770;23.400;2023-05-27T04:45:17;95618.72;;;20.20;67.94
32197;BME280;18697;42.770;23.400;2023-05-27T04:47:43;95609.75;;;20.22;67.94
32197;BME280;18697;42.770;23.400;2023-05-27T04:50:10;95614.38;;;20.19;68.56
32197;BME280;18697;42.770;23.400;2023-05-27T04:52:36;95612.56;;;20.22;70.17
32197;BME280;18697;42.770;23.400;2023-05-27T04:55:04;95604.41;;;20.18;71.15
32197;BME280;18697;42.770;23.400;2023-05-27T04:57:30;95601.34;;;20.16;69.36
32197;BME280;18697;42.770;23.400;2023-05-27T04:59:55;95606.97;;;20.16;68.84
32197;BME280;18697;42.770;23.400;2023-05-27T05:02:42;95602.88;;;20.17;68.57
32197;BME280;18697;42.770;23.400;2023-05-27T05:05:11;95602.88;;;20.17;68.79
32197;BME280;18697;42.770;23.400;2023-05-27T05:07:37;95606.63;;;20.25;68.67
32197;BME280;18697;42.770;23.400;2023-05-27T05:10:09;95602.56;;;20.21;68.50
32197;BME280;18697;42.770;23.400;2023-05-27T05:12:35;95607.16;;;20.24;68.52
32197;BME280;18697;42.770;23.400;2023-05-27T05:15:01;95616.63;;;20.26;68.19
32197;BME280;18697;42.770;23.400;2023-05-27T05:17:27;95603.34;;;20.21;68.19
32197;BME280;18697;42.770;23.400;2023-05-27T05:19:52;95618.41;;;20.05;69.14
32197;BME280;18697;42.770;23.400;2023-05-27T05:22:18;95617.00;;;19.22;72.04
32197;BME280;18697;42.770;23.400;2023-05-27T05:24:50;95620.25;;;18.27;76.18
32197;BME280;18697;42.770;23.400;2023-05-27T05:27:16;95630.72;;;18.21;77.07
32197;BME280;18697;42.770;23.400;2023-05-27T05:29:41;95633.69;;;18.62;75.57
32197;BME280;18697;42.770;23.400;2023-05-27T05:32:08;95620.97;;;18.44;76.19
32197;BME280;18697;42.770;23.400;2023-05-27T05:34:34;95636.63;;;18.06;77.38
32197;BME280;18697;42.770;23.400;2023-05-27T05:36:59;95633.06;;;17.94;79.15
32197;BME280;18697;42.770;23.400;2023-05-27T05:39:25;95628.72;;;18.04;79.29
32197;BME280;18697;42.770;23.400;2023-05-27T05:41:50;95634.00;;;18.36;76.97
32197;BME280;18697;42.770;23.400;2023-05-27T05:44:16;95633.69;;;18.56;76.19
32197;BME280;18697;42.770;23.400;2023-05-27T05:46:41;95631.66;;;18.57;76.25
32197;BME280;18697;42.770;23.400;2023-05-27T05:49:07;95640.31;;;18.59;76.01
32197;BME280;18697;42.770;23.400;2023-05-27T05:51:32;95640.88;;;18.46;77.85
32197;BME280;18697;42.770;23.400;2023-05-27T05:53:58;95643.59;;;18.74;75.83
32197;BME280;18697;42.770;23.400;2023-05-27T05:56:24;95654.53;;;18.89;74.89
32197;BME280;18697;42.770;23.400;2023-05-27T05:58:51;95644.28;;;18.97;74.63
32197;BME280;18697;42.770;23.400;2023-05-27T06:01:16;95656.22;;;19.14;73.82
32197;BME280;18697;42.770;23.400;2023-05-27T06:03:42;95648.19;;;19.29;72.87
32197;BME280;18697;42.770;23.400;2023-05-27T06:06:07;95646.53;;;19.45;72.42
32197;BME280;18697;42.770;23.400;2023-05-27T06:08:33;95643.44;;;19.49;72.18
32197;BME280;18697;42.770;23.400;2023-05-27T06:10:58;95649.59;;;19.47;72.42
32197;BME280;18697;42.770;23.400;2023-05-27T06:13:24;95640.84;;;19.56;71.90
32197;BME280;18697;42.770;23.400;2023-05-27T06:15:49;95646.09;;;19.71;71.47
32197;BME280;18697;42.770;23.400;2023-05-27T06:18:15;95637.41;;;19.69;71.48
32197;BME280;18697;42.770;23.400;2023-05-27T06:20:40;95642.25;;;19.74;71.16
32197;BME280;18697;42.770;23.400;2023-05-27T06:23:06;95657.78;;;19.86;71.63
32197;BME280;18697;42.770;23.400;2023-05-27T06:25:32;95647.22;;;19.92;71.74
32197;BME280;18697;42.770;23.400;2023-05-27T06:27:57;95651.56;;;19.93;70.52
32197;BME280;18697;42.770;23.400;2023-05-27T06:30:22;95654.34;;;19.99;70.18
32197;BME280;18697;42.770;23.400;2023-05-27T06:32:48;95661.22;;;20.04;70.08
32197;BME280;18697;42.770;23.400;2023-05-27T06:35:13;95659.91;;;20.05;70.70
32197;BME280;18697;42.770;23.400;2023-05-27T06:37:39;95660.59;;;20.11;70.46
32197;BME280;18697;42.770;23.400;2023-05-27T06:40:05;95668.50;;;20.18;69.72
32197;BME280;18697;42.770;23.400;2023-05-27T06:42:30;95665.19;;;20.14;70.35
32197;BME280;18697;42.770;23.400;2023-05-27T06:44:56;95667.72;;;20.17;70.09
32197;BME280;18697;42.770;23.400;2023-05-27T06:47:21;95668.72;;;20.20;70.21
32197;BME280;18697;42.770;23.400;2023-05-27T06:49:46;95669.66;;;20.28;70.50
32197;BME280;18697;42.770;23.400;2023-05-27T06:52:12;95674.78;;;20.29;70.70
32197;BME280;18697;42.770;23.400;2023-05-27T06:54:37;95670.91;;;20.32;70.46
32197;BME280;18697;42.770;23.400;2023-05-27T06:57:03;95676.25;;;20.36;70.36
32197;BME280;18697;42.770;23.400;2023-05-27T06:59:29;95674.72;;;20.41;71.00
32197;BME280;18697;42.770;23.400;2023-05-27T07:01:55;95666.25;;;20.41;70.29
32197;BME280;18697;42.770;23.400;2023-05-27T07:04:24;95674.94;;;20.43;70.51
32197;BME280;18697;42.770;23.400;2023-05-27T07:06:49;95679.75;;;20.48;70.59
32197;BME280;18697;42.770;23.400;2023-05-27T07:09:15;95670.78;;;20.49;69.87
32197;BME280;18697;42.770;23.400;2023-05-27T07:11:41;95674.94;;;20.43;70.10
32197;BME280;18697;42.770;23.400;2023-05-27T07:14:06;95673.25;;;20.28;70.97
32197;BME280;18697;42.770;23.400;2023-05-27T07:16:34;95680.25;;;20.22;71.07
32197;BME280;18697;42.770;23.400;2023-05-27T07:19:00;95674.19;;;19.82;72.80
32197;BME280;18697;42.770;23.400;2023-05-27T07:21:25;95676.28;;;19.76;72.35
32197;BME280;18697;42.770;23.400;2023-05-27T07:23:50;95676.69;;;19.91;71.58
32197;BME280;18697;42.770;23.400;2023-05-27T07:26:16;95668.19;;;19.97;71.63
32197;BME280;18697;42.770;23.400;2023-05-27T07:28:41;95680.88;;;20.09;71.12
32197;BME280;18697;42.770;23.400;2023-05-27T07:31:07;95677.94;;;20.20;70.86
32197;BME280;18697;42.770;23.400;2023-05-27T07:33:32;95677.91;;;20.26;70.86
32197;BME280;18697;42.770;23.400;2023-05-27T07:35:57;95680.75;;;19.96;73.16
32197;BME280;18697;42.770;23.400;2023-05-27T07:38:23;95683.41;;;20.13;72.57
32197;BME280;18697;42.770;23.400;2023-05-27T07:40:48;95681.78;;;20.23;72.29
32197;BME280;18697;42.770;23.400;2023-05-27T07:43:14;95678.56;;;20.38;73.14
32197;BME280;18697;42.770;23.400;2023-05-27T07:45:40;95679.59;;;20.40;73.21
32197;BME280;18697;42.770;23.400;2023-05-27T07:48:05;95682.56;;;19.93;73.97
32197;BME280;18697;42.770;23.400;2023-05-27T07:50:30;95677.41;;;19.97;74.27
32197;BME280;18697;42.770;23.400;2023-05-27T07:52:56;95678.94;;;19.98;73.40
32197;BME280;18697;42.770;23.400;2023-05-27T07:55:21;95679.72;;;20.23;72.93
32197;BME280;18697;42.770;23.400;2023-05-27T07:57:47;95685.53;;;20.31;72.50
32197;BME280;18697;42.770;23.400;2023-05-27T08:00:12;95689.59;;;20.35;72.23
32197;BME280;18697;42.770;23.400;2023-05-27T08:02:38;95693.56;;;20.51;71.95
32197;BME280;18697;42.770;23.400;2023-05-27T08:05:03;95685.28;;;20.59;71.84
32197;BME280;18697;42.770;23.400;2023-05-27T08:07:30;95684.47;;;20.64;72.06
32197;BME280;18697;42.770;23.400;2023-05-27T08:09:55;95688.00;;;20.70;72.04
32197;BME280;18697;42.770;23.400;2023-05-27T08:12:21;95693.81;;;20.78;71.38
32197;BME280;18697;42.770;23.400;2023-05-27T08:14:48;95698.16;;;20.79;70.93
32197;BME280;18697;42.770;23.400;2023-05-27T08:17:13;95690.66;;;20.81;70.36
32197;BME280;18697;42.770;23.400;2023-05-27T08:19:39;95695.94;;;20.90;70.22
32197;BME280;18697;42.770;23.400;2023-05-27T08:22:04;95695.66;;;20.94;70.53
32197;BME280;18697;42.770;23.400;2023-05-27T08:24:34;95687.72;;;20.92;70.66
32197;BME280;18697;42.770;23.400;2023-05-27T08:26:59;95697.47;;;20.91;70.69
32197;BME280;18697;42.770;23.400;2023-05-27T08:29:28;95688.69;;;20.95;70.82
32197;BME280;18697;42.770;23.400;2023-05-27T08:31:56;95698.94;;;20.98;70.48
32197;BME280;18697;42.770;23.400;2023-05-27T08:34:27;95687.94;;;20.94;70.35
32197;BME280;18697;42.770;23.400;2023-05-27T08:36:53;95699.69;;;20.98;70.13
32197;BME280;18697;42.770;23.400;2023-05-27T08:39:18;95691.47;;;21.00;70.10
32197;BME280;18697;42.770;23.400;2023-05-27T08:41:45;95696.41;;;20.94;70.08
32197;BME280;18697;42.770;23.400;2023-05-27T08:44:11;95686.13;;;20.97;70.75
32197;BME280;18697;42.770;23.400;2023-05-27T08:46:36;95688.88;;;21.03;70.80
32197;BME280;18697;42.770;23.400;2023-05-27T08:49:02;95685.28;;;21.02;70.80
32197;BME280;18697;42.770;23.400;2023-05-27T08:51:27;95687.34;;;21.02;70.70
32197;BME280;18697;42.770;23.400;2023-05-27T08:53:53;95683.75;;;21.01;70.40
32197;BME280;18697;42.770;23.400;2023-05-27T08:56:19;95684.88;;;20.92;70.92
32197;BME280;18697;42.770;23.400;2023-05-27T08:58:46;95682.06;;;20.74;72.28
32197;BME280;18697;42.770;23.400;2023-05-27T09:01:15;95678.22;;;20.71;71.90
32197;BME280;18697;42.770;23.400;2023-05-27T09:03:41;95686.69;;;20.47;72.95
32197;BME280;18697;42.770;23.400;2023-05-27T09:06:07;95672.72;;;20.60;72.46
32197;BME280;18697;42.770;23.400;2023-05-27T09:08:32;95681.59;;;20.70;72.77
32197;BME280;18697;42.770;23.400;2023-05-27T09:10:58;95673.53;;;20.79;71.85
32197;BME280;18697;42.770;23.400;2023-05-27T09:13:30;95668.31;;;20.83;71.60
32197;BME280;18697;42.770;23.400;2023-05-27T09:16:13;95681.38;;;20.86;71.81
32197;BME280;18697;42.770;23.400;2023-05-27T09:18:41;95675.88;;;20.94;72.32
32197;BME280;18697;42.770;23.400;2023-05-27T09:21:06;95686.03;;;21.03;72.50
32197;BME280;18697;42.770;23.400;2023-05-27T09:23:37;95683.16;;;21.08;72.87
32197;BME280;18697;42.770;23.400;2023-05-27T09:26:07;95688.50;;;21.12;72.66
32197;BME280;18697;42.770;23.400;2023-05-27T09:28:35;95680.72;;;21.18;72.62
32197;BME280;18697;42.770;23.400;2023-05-27T09:31:03;95670.69;;;21.22;72.39
32197;BME280;18697;42.770;23.400;2023-05-27T09:33:38;95672.34;;;21.31;73.11
32197;BME280;18697;42.770;23.400;2023-05-27T09:36:04;95669.22;;;21.35;72.04
32197;BME280;18697;42.770;23.400;2023-05-27T09:38:30;95668.91;;;21.38;72.09
32197;BME280;18697;42.770;23.400;2023-05-27T09:40:57;95659.91;;;21.40;71.78
32197;BME280;18697;42.770;23.400;2023-05-27T09:43:26;95656.47;;;21.47;71.87
32197;BME280;18697;42.770;23.400;2023-05-27T09:45:59;95652.78;;;21.52;71.28
32197;BME280;18697;42.770;23.400;2023-05-27T09:48:27;95655.66;;;21.65;71.04
32197;BME280;18697;42.770;23.400;2023-05-27T09:50:54;95659.00;;;21.63;71.00
32197;BME280;18697;42.770;23.400;2023-05-27T09:53:20;95659.84;;;21.77;70.08
32197;BME280;18697;42.770;23.400;2023-05-27T09:55:48;95659.78;;;21.96;69.69
32197;BME280;18697;42.770;23.400;2023-05-27T09:58:14;95657.66;;;22.02;69.80
32197;BME280;18697;42.770;23.400;2023-05-27T10:00:41;95658.56;;;22.10;69.88
32197;BME280;18697;42.770;23.400;2023-05-27T10:03:07;95649.97;;;21.84;66.71
32197;BME280;18697;42.770;23.400;2023-05-27T10:05:32;95654.94;;;21.78;66.99
32197;BME280;18697;42.770;23.400;2023-05-27T10:07:58;95645.81;;;22.04;68.38
32197;BME280;18697;42.770;23.400;2023-05-27T10:10:24;95650.19;;;22.18;65.68
32197;BME280;18697;42.770;23.400;2023-05-27T10:12:50;95644.88;;;22.54;67.27
32197;BME280;18697;42.770;23.400;2023-05-27T10:15:30;95649.13;;;22.60;60.60
32197;BME280;18697;42.770;23.400;2023-05-27T10:20:30;95639.34;;;23.01;62.67
32197;BME280;18697;42.770;23.400;2023-05-27T10:22:57;95638.03;;;22.89;62.15
32197;BME280;18697;42.770;23.400;2023-05-27T10:25:38;95645.72;;;23.15;62.56
32197;BME280;18697;42.770;23.400;2023-05-27T10:28:03;95634.97;;;23.00;60.49
32197;BME280;18697;42.770;23.400;2023-05-27T10:30:29;95636.53;;;22.88;61.91
32197;BME280;18697;42.770;23.400;2023-05-27T10:32:54;95639.44;;;22.69;61.86
32197;BME280;18697;42.770;23.400;2023-05-27T10:35:25;95630.28;;;22.50;63.79
32197;BME280;18697;42.770;23.400;2023-05-27T10:37:51;95625.72;;;21.88;65.03
32197;BME280;18697;42.770;23.400;2023-05-27T10:40:24;95627.75;;;21.75;67.10
32197;BME280;18697;42.770;23.400;2023-05-27T10:43:00;95624.38;;;21.76;67.44
32197;BME280;18697;42.770;23.400;2023-05-27T10:45:33;95626.00;;;21.72;66.34
32197;BME280;18697;42.770;23.400;2023-05-27T10:47:59;95625.09;;;21.63;65.10
32197;BME280;18697;42.770;23.400;2023-05-27T10:50:31;95619.00;;;21.59;67.18
32197;BME280;18697;42.770;23.400;2023-05-27T10:52:59;95617.47;;;21.58;66.30
32197;BME280;18697;42.770;23.400;2023-05-27T10:55:25;95611.97;;;21.66;67.35
32197;BME280;18697;42.770;23.400;2023-05-27T10:57:51;95615.31;;;21.64;65.61
32197;BME280;18697;42.770;23.400;2023-05-27T11:00:18;95604.06;;;21.78;63.13
32197;BME280;18697;42.770;23.400;2023-05-27T11:02:46;95611.88;;;22.04;60.80
32197;BME280;18697;42.770;23.400;2023-05-27T11:05:14;95599.47;;;22.33;61.08
32197;BME280;18697;42.770;23.400;2023-05-27T11:07:40;95605.38;;;22.48;56.98
32197;BME280;18697;42.770;23.400;2023-05-27T11:10:09;95599.72;;;22.48;59.08
32197;BME280;18697;42.770;23.400;2023-05-27T11:12:35;95591.44;;;22.50;57.60
32197;BME280;18697;42.770;23.400;2023-05-27T11:15:01;95589.25;;;22.56;59.84
32197;BME280;18697;42.770;23.400;2023-05-27T11:17:27;95588.94;;;22.47;59.47
32197;BME280;18697;42.770;23.400;2023-05-27T11:19:53;95575.31;;;22.58;58.33
32197;BME280;18697;42.770;23.400;2023-05-27T11:22:20;95576.31;;;22.87;58.09
32197;BME280;18697;42.770;23.400;2023-05-27T11:24:58;95577.09;;;23.09;57.36
32197;BME280;18697;42.770;23.400;2023-05-27T11:27:32;95574.13;;;22.80;56.33
32197;BME280;18697;42.770;23.400;2023-05-27T11:29:58;95572.59;;;22.92;58.16
32197;BME280;18697;42.770;23.400;2023-05-27T11:32:23;95567.00;;;23.00;58.24
32197;BME280;18697;42.770;23.400;2023-05-27T11:34:49;95568.47;;;22.80;60.93
32197;BME280;18697;42.770;23.400;2023-05-27T11:37:15;95566.06;;;22.84;59.18
32197;BME280;18697;42.770;23.400;2023-05-27T11:39:51;95558.34;;;22.58;61.35
32197;BME280;18697;42.770;23.400;2023-05-27T11:42:21;95562.91;;;22.61;62.06
32197;BME280;18697;42.770;23.400;2023-05-27T11:44:51;95560.75;;;22.54;62.62
32197;BME280;18697;42.770;23.400;2023-05-27T11:47:17;95553.22;;;22.44;63.04
32197;BME280;18697;42.770;23.400;2023-05-27T11:49:42;95562.91;;;22.48;62.98
32197;BME280;18697;42.770;23.400;2023-05-27T11:52:10;95560.72;;;22.68;62.96
32197;BME280;18697;42.770;23.400;2023-05-27T11:54:37;95564.97;;;22.74;62.00
32197;BME280;18697;42.770;23.400;2023-05-27T11:57:03;95562.47;;;22.71;61.49
32197;BME280;18697;42.770;23.400;2023-05-27T11:59:33;95549.41;;;22.68;59.60
32197;BME280;18697;42.770;23.400;2023-05-27T12:01:58;95560.63;;;22.86;59.49
32197;BME280;18697;42.770;23.400;2023-05-27T12:04:24;95553.00;;;23.15;58.63
32197;BME280;18697;42.770;23.400;2023-05-27T12:06:49;95544.91;;;23.19;53.60
32197;BME280;18697;42.770;23.400;2023-05-27T12:09:15;95551.00;;;23.23;52.30
32197;BME280;18697;42.770;23.400;2023-05-27T12:11:41;95542.84;;;23.20;53.66
32197;BME280;18697;42.770;23.400;2023-05-27T12:14:07;95537.38;;;23.22;57.18
32197;BME280;18697;42.770;23.400;2023-05-27T12:16:33;95529.13;;;22.90;57.51
32197;BME280;18697;42.770;23.400;2023-05-27T12:18:59;95536.75;;;22.95;60.89
32197;BME280;18697;42.770;23.400;2023-05-27T12:21:24;95529.81;;;22.83;59.25
32197;BME280;18697;42.770;23.400;2023-05-27T12:23:50;95526.44;;;22.84;59.04
32197;BME280;18697;42.770;23.400;2023-05-27T12:26:16;95526.31;;;22.90;58.66
32197;BME280;18697;42.770;23.400;2023-05-27T12:28:42;95512.91;;;22.77;58.02
32197;BME280;18697;42.770;23.400;2023-05-27T12:31:08;95521.31;;;22.83;56.98
32197;BME280;18697;42.770;23.400;2023-05-27T12:33:33;95505.66;;;23.03;57.19
32197;BME280;18697;42.770;23.400;2023-05-27T12:35:59;95512.34;;;22.92;55.41
32197;BME280;18697;42.770;23.400;2023-05-27T12:38:25;95496.34;;;23.15;53.48
32197;BME280;18697;42.770;23.400;2023-05-27T12:40:51;95495.09;;;23.24;55.27
32197;BME280;18697;42.770;23.400;2023-05-27T12:43:17;95497.47;;;23.33;54.96
32197;BME280;18697;42.770;23.400;2023-05-27T12:45:44;95490.72;;;23.57;53.83
32197;BME280;18697;42.770;23.400;2023-05-27T12:48:13;95481.59;;;23.79;52.87
32197;BME280;18697;42.770;23.400;2023-05-27T12:50:38;95484.13;;;23.41;52.14
32197;BME280;18697;42.770;23.400;2023-05-27T12:53:04;95476.78;;;23.46;52.27